sensor_id;sensor_type;location;lat;lon;timestamp;P1;durP1;ratioP1;P2;durP2;ratioP2
70444;SDS011;57902;49.638;11.070;2024-01-30T00:00:44;13.50;;;5.38;;
70444;SDS011;57902;49.638;11.070;2024-01-30T00:03:11;13.43;;;5.53;;
70444;SDS011;57902;49.638;11.070;2024-01-30T00:05:38;15.63;;;6.07;;
70444;SDS011;57902;49.638;11.070;2024-01-30T00:08:04;14.25;;;6.50;;
70444;SDS011;57902;49.638;11.070;2024-01-30T00:10:31;13.88;;;5.38;;
70444;SDS011;57902;49.638;11.070;2024-01-30T00:12:58;12.85;;;5.00;;
70444;SDS011;57902;49.638;11.070;2024-01-30T00:15:24;13.38;;;5.63;;
70444;SDS011;57902;49.638;11.070;2024-01-30T00:17:51;13.35;;;5.38;;
70444;SDS011;57902;49.638;11.070;2024-01-30T00:20:19;14.43;;;5.32;;
70444;SDS011;57902;49.638;11.070;2024-01-30T00:22:47;12.90;;;5.43;;
70444;SDS011;57902;49.638;11.070;2024-01-30T00:25:13;13.40;;;4.97;;
70444;SDS011;57902;49.638;11.070;2024-01-30T00:27:40;13.80;;;5.13;;
70444;SDS011;57902;49.638;11.070;2024-01-30T00:30:07;12.90;;;5.07;;
70444;SDS011;57902;49.638;11.070;2024-01-30T00:32:34;11.80;;;4.75;;
70444;SDS011;57902;49.638;11.070;2024-01-30T00:35:01;13.80;;;5.07;;
70444;SDS011;57902;49.638;11.070;2024-01-30T00:37:28;12.82;;;4.93;;
70444;SDS011;57902;49.638;11.070;2024-01-30T00:39:54;13.30;;;5.03;;
70444;SDS011;57902;49.638;11.070;2024-01-30T00:42:21;12.07;;;5.22;;
70444;SDS011;57902;49.638;11.070;2024-01-30T00:44:50;13.82;;;5.40;;
70444;SDS011;57902;49.638;11.070;2024-01-30T00:47:16;13.63;;;5.15;;
70444;SDS011;57902;49.638;11.070;2024-01-30T00:49:42;13.98;;;6.32;;
70444;SDS011;57902;49.638;11.070;2024-01-30T00:52:09;15.73;;;6.63;;
70444;SDS011;57902;49.638;11.070;2024-01-30T00:54:36;13.27;;;6.32;;
70444;SDS011;57902;49.638;11.070;2024-01-30T00:57:03;14.18;;;5.57;;
70444;SDS011;57902;49.638;11.070;2024-01-30T00:59:29;15.05;;;6.13;;
70444;SDS011;57902;49.638;11.070;2024-01-30T01:01:56;15.70;;;7.30;;
70444;SDS011;57902;49.638;11.070;2024-01-30T01:04:23;13.82;;;5.78;;
70444;SDS011;57902;49.638;11.070;2024-01-30T01:06:49;13.35;;;5.25;;
70444;SDS011;57902;49.638;11.070;2024-01-30T01:09:16;11.80;;;4.43;;
70444;SDS011;57902;49.638;11.070;2024-01-30T01:11:43;10.70;;;4.80;;
70444;SDS011;57902;49.638;11.070;2024-01-30T01:14:10;11.65;;;4.55;;
70444;SDS011;57902;49.638;11.070;2024-01-30T01:16:36;11.60;;;4.53;;
70444;SDS011;57902;49.638;11.070;2024-01-30T01:19:03;11.02;;;4.60;;
70444;SDS011;57902;49.638;11.070;2024-01-30T01:21:30;13.90;;;5.43;;
70444;SDS011;57902;49.638;11.070;2024-01-30T01:23:57;12.65;;;4.85;;
70444;SDS011;57902;49.638;11.070;2024-01-30T01:26:24;15.60;;;6.45;;
70444;SDS011;57902;49.638;11.070;2024-01-30T01:28:50;14.68;;;5.32;;
70444;SDS011;57902;49.638;11.070;2024-01-30T01:31:17;13.75;;;5.53;;
70444;SDS011;57902;49.638;11.070;2024-01-30T01:33:44;12.52;;;5.13;;
70444;SDS011;57902;49.638;11.070;2024-01-30T01:36:11;10.40;;;4.95;;
70444;SDS011;57902;49.638;11.070;2024-01-30T01:38:40;11.40;;;4.07;;
70444;SDS011;57902;49.638;11.070;2024-01-30T01:41:06;10.70;;;4.38;;
70444;SDS011;57902;49.638;11.070;2024-01-30T01:43:33;10.18;;;4.30;;
70444;SDS011;57902;49.638;11.070;2024-01-30T01:45:59;10.23;;;4.90;;
70444;SDS011;57902;49.638;11.070;2024-01-30T01:48:26;9.35;;;4.07;;
70444;SDS011;57902;49.638;11.070;2024-01-30T01:50:53;11.70;;;4.90;;
70444;SDS011;57902;49.638;11.070;2024-01-30T01:53:20;10.48;;;4.47;;
70444;SDS011;57902;49.638;11.070;2024-01-30T01:55:46;10.43;;;4.72;;
70444;SDS011;57902;49.638;11.070;2024-01-30T01:58:14;12.55;;;5.18;;
70444;SDS011;57902;49.638;11.070;2024-01-30T02:00:41;11.07;;;4.60;;
70444;SDS011;57902;49.638;11.070;2024-01-30T02:03:09;12.77;;;4.60;;
70444;SDS011;57902;49.638;11.070;2024-01-30T02:08:05;11.32;;;4.70;;
70444;SDS011;57902;49.638;11.070;2024-01-30T02:10:31;11.80;;;5.10;;
70444;SDS011;57902;49.638;11.070;2024-01-30T02:12:58;10.05;;;4.72;;
70444;SDS011;57902;49.638;11.070;2024-01-30T02:15:25;10.73;;;4.50;;
70444;SDS011;57902;49.638;11.070;2024-01-30T02:17:51;11.95;;;4.60;;
70444;SDS011;57902;49.638;11.070;2024-01-30T02:20:18;12.18;;;4.82;;
70444;SDS011;57902;49.638;11.070;2024-01-30T02:22:45;11.18;;;4.80;;
70444;SDS011;57902;49.638;11.070;2024-01-30T02:25:13;13.20;;;4.50;;
70444;SDS011;57902;49.638;11.070;2024-01-30T02:27:39;10.32;;;3.95;;
70444;SDS011;57902;49.638;11.070;2024-01-30T02:30:06;10.02;;;3.63;;
70444;SDS011;57902;49.638;11.070;2024-01-30T02:32:33;9.07;;;3.53;;
70444;SDS011;57902;49.638;11.070;2024-01-30T02:35:00;10.50;;;3.85;;
70444;SDS011;57902;49.638;11.070;2024-01-30T02:37:26;9.32;;;3.45;;
70444;SDS011;57902;49.638;11.070;2024-01-30T02:39:53;8.25;;;3.67;;
70444;SDS011;57902;49.638;11.070;2024-01-30T02:42:20;8.93;;;3.63;;
70444;SDS011;57902;49.638;11.070;2024-01-30T02:44:46;7.93;;;3.38;;
70444;SDS011;57902;49.638;11.070;2024-01-30T02:47:13;9.77;;;3.97;;
70444;SDS011;57902;49.638;11.070;2024-01-30T02:49:39;9.70;;;3.90;;
70444;SDS011;57902;49.638;11.070;2024-01-30T02:52:06;10.32;;;4.15;;
70444;SDS011;57902;49.638;11.070;2024-01-30T02:54:33;9.40;;;3.92;;
70444;SDS011;57902;49.638;11.070;2024-01-30T02:56:59;11.27;;;4.07;;
70444;SDS011;57902;49.638;11.070;2024-01-30T02:59:26;10.73;;;3.58;;
70444;SDS011;57902;49.638;11.070;2024-01-30T03:01:52;12.60;;;3.88;;
70444;SDS011;57902;49.638;11.070;2024-01-30T03:04:19;10.23;;;4.22;;
70444;SDS011;57902;49.638;11.070;2024-01-30T03:06:45;12.73;;;4.32;;
70444;SDS011;57902;49.638;11.070;2024-01-30T03:09:16;9.65;;;3.78;;
70444;SDS011;57902;49.638;11.070;2024-01-30T03:11:43;11.73;;;4.40;;
70444;SDS011;57902;49.638;11.070;2024-01-30T03:14:09;13.10;;;4.57;;
70444;SDS011;57902;49.638;11.070;2024-01-30T03:16:39;13.77;;;4.45;;
70444;SDS011;57902;49.638;11.070;2024-01-30T03:19:06;15.30;;;4.97;;
70444;SDS011;57902;49.638;11.070;2024-01-30T03:21:35;12.18;;;5.28;;
70444;SDS011;57902;49.638;11.070;2024-01-30T03:24:02;10.15;;;4.55;;
70444;SDS011;57902;49.638;11.070;2024-01-30T03:26:29;9.75;;;4.40;;
70444;SDS011;57902;49.638;11.070;2024-01-30T03:28:55;11.07;;;4.38;;
70444;SDS011;57902;49.638;11.070;2024-01-30T03:31:22;10.75;;;4.65;;
70444;SDS011;57902;49.638;11.070;2024-01-30T03:33:48;11.85;;;4.65;;
70444;SDS011;57902;49.638;11.070;2024-01-30T03:36:15;11.02;;;4.03;;
70444;SDS011;57902;49.638;11.070;2024-01-30T03:38:42;8.95;;;3.67;;
70444;SDS011;57902;49.638;11.070;2024-01-30T03:41:09;12.05;;;4.80;;
70444;SDS011;57902;49.638;11.070;2024-01-30T03:43:36;17.02;;;7.03;;
70444;SDS011;57902;49.638;11.070;2024-01-30T03:46:03;10.85;;;4.60;;
70444;SDS011;57902;49.638;11.070;2024-01-30T03:48:30;9.90;;;4.43;;
70444;SDS011;57902;49.638;11.070;2024-01-30T03:50:56;12.70;;;4.30;;
70444;SDS011;57902;49.638;11.070;2024-01-30T03:53:23;9.80;;;3.83;;
70444;SDS011;57902;49.638;11.070;2024-01-30T03:55:50;10.80;;;4.20;;
70444;SDS011;57902;49.638;11.070;2024-01-30T03:58:16;13.60;;;4.60;;
70444;SDS011;57902;49.638;11.070;2024-01-30T04:00:43;10.75;;;4.32;;
70444;SDS011;57902;49.638;11.070;2024-01-30T04:03:11;11.70;;;4.22;;
70444;SDS011;57902;49.638;11.070;2024-01-30T04:05:37;11.38;;;5.03;;
70444;SDS011;57902;49.638;11.070;2024-01-30T04:08:04;12.60;;;4.07;;
70444;SDS011;57902;49.638;11.070;2024-01-30T04:10:31;12.63;;;4.93;;
70444;SDS011;57902;49.638;11.070;2024-01-30T04:12:57;14.25;;;5.20;;
70444;SDS011;57902;49.638;11.070;2024-01-30T04:15:24;16.75;;;4.95;;
70444;SDS011;57902;49.638;11.070;2024-01-30T04:17:51;10.35;;;4.43;;
70444;SDS011;57902;49.638;11.070;2024-01-30T04:20:18;12.77;;;4.32;;
70444;SDS011;57902;49.638;11.070;2024-01-30T04:22:44;13.45;;;4.82;;
70444;SDS011;57902;49.638;11.070;2024-01-30T04:25:12;12.57;;;5.05;;
70444;SDS011;57902;49.638;11.070;2024-01-30T04:27:39;12.48;;;4.63;;
70444;SDS011;57902;49.638;11.070;2024-01-30T04:30:06;10.60;;;4.35;;
70444;SDS011;57902;49.638;11.070;2024-01-30T04:32:34;10.70;;;4.60;;
70444;SDS011;57902;49.638;11.070;2024-01-30T04:35:01;11.20;;;4.57;;
70444;SDS011;57902;49.638;11.070;2024-01-30T04:37:31;10.65;;;4.65;;
70444;SDS011;57902;49.638;11.070;2024-01-30T04:39:57;11.00;;;4.28;;
70444;SDS011;57902;49.638;11.070;2024-01-30T04:42:24;12.45;;;4.55;;
70444;SDS011;57902;49.638;11.070;2024-01-30T04:44:51;11.25;;;4.53;;
70444;SDS011;57902;49.638;11.070;2024-01-30T04:47:17;11.70;;;4.68;;
70444;SDS011;57902;49.638;11.070;2024-01-30T04:49:44;12.20;;;4.20;;
70444;SDS011;57902;49.638;11.070;2024-01-30T04:52:10;11.07;;;4.47;;
70444;SDS011;57902;49.638;11.070;2024-01-30T04:54:37;11.57;;;4.82;;
70444;SDS011;57902;49.638;11.070;2024-01-30T04:57:04;10.07;;;4.57;;
70444;SDS011;57902;49.638;11.070;2024-01-30T04:59:35;11.57;;;4.93;;
70444;SDS011;57902;49.638;11.070;2024-01-30T05:02:02;9.82;;;4.70;;
70444;SDS011;57902;49.638;11.070;2024-01-30T05:04:29;13.60;;;4.60;;
70444;SDS011;57902;49.638;11.070;2024-01-30T05:06:55;12.27;;;4.93;;
70444;SDS011;57902;49.638;11.070;2024-01-30T05:09:22;11.02;;;4.60;;
70444;SDS011;57902;49.638;11.070;2024-01-30T05:11:48;12.48;;;4.40;;
70444;SDS011;57902;49.638;11.070;2024-01-30T05:14:15;12.43;;;4.45;;
70444;SDS011;57902;49.638;11.070;2024-01-30T05:16:42;12.93;;;4.75;;
70444;SDS011;57902;49.638;11.070;2024-01-30T05:19:13;14.07;;;5.13;;
70444;SDS011;57902;49.638;11.070;2024-01-30T05:21:41;12.98;;;5.55;;
70444;SDS011;57902;49.638;11.070;2024-01-30T05:24:08;14.48;;;4.90;;
70444;SDS011;57902;49.638;11.070;2024-01-30T05:26:36;13.10;;;4.35;;
70444;SDS011;57902;49.638;11.070;2024-01-30T05:29:03;12.40;;;4.80;;
70444;SDS011;57902;49.638;11.070;2024-01-30T05:31:29;11.25;;;4.70;;
70444;SDS011;57902;49.638;11.070;2024-01-30T05:33:56;14.93;;;4.88;;
70444;SDS011;57902;49.638;11.070;2024-01-30T05:36:23;12.38;;;4.80;;
70444;SDS011;57902;49.638;11.070;2024-01-30T05:38:49;12.30;;;4.50;;
70444;SDS011;57902;49.638;11.070;2024-01-30T05:41:16;14.13;;;5.35;;
70444;SDS011;57902;49.638;11.070;2024-01-30T05:43:42;13.32;;;5.82;;
70444;SDS011;57902;49.638;11.070;2024-01-30T05:46:09;14.65;;;5.25;;
70444;SDS011;57902;49.638;11.070;2024-01-30T05:48:36;12.63;;;5.72;;
70444;SDS011;57902;49.638;11.070;2024-01-30T05:51:02;13.70;;;5.10;;
70444;SDS011;57902;49.638;11.070;2024-01-30T05:53:30;14.32;;;5.50;;
70444;SDS011;57902;49.638;11.070;2024-01-30T05:55:57;10.88;;;5.15;;
70444;SDS011;57902;49.638;11.070;2024-01-30T05:58:23;9.80;;;4.60;;
70444;SDS011;57902;49.638;11.070;2024-01-30T06:00:50;14.23;;;5.25;;
70444;SDS011;57902;49.638;11.070;2024-01-30T06:03:16;9.63;;;4.00;;
70444;SDS011;57902;49.638;11.070;2024-01-30T06:05:43;10.82;;;4.68;;
70444;SDS011;57902;49.638;11.070;2024-01-30T06:08:09;14.00;;;5.75;;
70444;SDS011;57902;49.638;11.070;2024-01-30T06:10:36;16.45;;;7.10;;
70444;SDS011;57902;49.638;11.070;2024-01-30T06:13:03;20.52;;;7.60;;
70444;SDS011;57902;49.638;11.070;2024-01-30T06:15:30;19.25;;;6.43;;
70444;SDS011;57902;49.638;11.070;2024-01-30T06:17:56;18.00;;;6.00;;
70444;SDS011;57902;49.638;11.070;2024-01-30T06:20:23;15.73;;;5.75;;
70444;SDS011;57902;49.638;11.070;2024-01-30T06:22:50;18.13;;;6.45;;
70444;SDS011;57902;49.638;11.070;2024-01-30T06:25:16;13.68;;;5.47;;
70444;SDS011;57902;49.638;11.070;2024-01-30T06:27:43;13.35;;;5.50;;
70444;SDS011;57902;49.638;11.070;2024-01-30T06:30:10;13.55;;;5.78;;
70444;SDS011;57902;49.638;11.070;2024-01-30T06:32:37;17.15;;;6.43;;
70444;SDS011;57902;49.638;11.070;2024-01-30T06:35:04;13.85;;;5.65;;
70444;SDS011;57902;49.638;11.070;2024-01-30T06:37:32;14.30;;;6.15;;
70444;SDS011;57902;49.638;11.070;2024-01-30T06:39:59;15.82;;;5.55;;
70444;SDS011;57902;49.638;11.070;2024-01-30T06:42:25;13.52;;;5.15;;
70444;SDS011;57902;49.638;11.070;2024-01-30T06:44:52;14.48;;;5.15;;
70444;SDS011;57902;49.638;11.070;2024-01-30T06:47:18;11.57;;;4.57;;
70444;SDS011;57902;49.638;11.070;2024-01-30T06:49:45;12.20;;;5.40;;
70444;SDS011;57902;49.638;11.070;2024-01-30T06:52:12;12.88;;;5.25;;
70444;SDS011;57902;49.638;11.070;2024-01-30T06:54:38;12.05;;;4.82;;
70444;SDS011;57902;49.638;11.070;2024-01-30T06:57:06;12.43;;;5.50;;
70444;SDS011;57902;49.638;11.070;2024-01-30T06:59:38;11.75;;;4.80;;
70444;SDS011;57902;49.638;11.070;2024-01-30T07:02:09;13.70;;;4.95;;
70444;SDS011;57902;49.638;11.070;2024-01-30T07:04:37;13.13;;;4.88;;
70444;SDS011;57902;49.638;11.070;2024-01-30T07:07:06;12.80;;;5.03;;
70444;SDS011;57902;49.638;11.070;2024-01-30T07:09:38;10.95;;;4.75;;
70444;SDS011;57902;49.638;11.070;2024-01-30T07:12:05;13.05;;;4.90;;
70444;SDS011;57902;49.638;11.070;2024-01-30T07:14:32;11.40;;;4.55;;
70444;SDS011;57902;49.638;11.070;2024-01-30T07:16:59;11.85;;;5.63;;
70444;SDS011;57902;49.638;11.070;2024-01-30T07:19:26;14.63;;;5.43;;
70444;SDS011;57902;49.638;11.070;2024-01-30T07:21:52;10.63;;;4.63;;
70444;SDS011;57902;49.638;11.070;2024-01-30T07:24:19;14.05;;;5.03;;
70444;SDS011;57902;49.638;11.070;2024-01-30T07:26:45;12.10;;;5.15;;
70444;SDS011;57902;49.638;11.070;2024-01-30T07:29:12;14.15;;;6.35;;
70444;SDS011;57902;49.638;11.070;2024-01-30T07:31:39;12.00;;;5.00;;
70444;SDS011;57902;49.638;11.070;2024-01-30T07:34:06;14.00;;;5.68;;
70444;SDS011;57902;49.638;11.070;2024-01-30T07:36:33;13.25;;;5.07;;
70444;SDS011;57902;49.638;11.070;2024-01-30T07:38:59;11.55;;;4.72;;
70444;SDS011;57902;49.638;11.070;2024-01-30T07:41:26;12.90;;;5.00;;
70444;SDS011;57902;49.638;11.070;2024-01-30T07:43:53;12.20;;;5.20;;
70444;SDS011;57902;49.638;11.070;2024-01-30T07:46:20;12.25;;;4.85;;
70444;SDS011;57902;49.638;11.070;2024-01-30T07:48:46;13.73;;;5.60;;
70444;SDS011;57902;49.638;11.070;2024-01-30T07:51:14;12.95;;;5.15;;
70444;SDS011;57902;49.638;11.070;2024-01-30T07:53:40;12.60;;;5.40;;
70444;SDS011;57902;49.638;11.070;2024-01-30T07:56:08;11.43;;;4.95;;
70444;SDS011;57902;49.638;11.070;2024-01-30T07:58:34;14.45;;;5.32;;
70444;SDS011;57902;49.638;11.070;2024-01-30T08:01:01;15.25;;;6.47;;
70444;SDS011;57902;49.638;11.070;2024-01-30T08:03:28;15.93;;;6.15;;
70444;SDS011;57902;49.638;11.070;2024-01-30T08:05:54;14.18;;;5.78;;
70444;SDS011;57902;49.638;11.070;2024-01-30T08:08:21;17.63;;;7.15;;
70444;SDS011;57902;49.638;11.070;2024-01-30T08:10:48;21.40;;;7.63;;
70444;SDS011;57902;49.638;11.070;2024-01-30T08:13:16;15.18;;;6.60;;
70444;SDS011;57902;49.638;11.070;2024-01-30T08:15:42;14.30;;;5.78;;
70444;SDS011;57902;49.638;11.070;2024-01-30T08:18:09;14.10;;;6.18;;
70444;SDS011;57902;49.638;11.070;2024-01-30T08:20:36;18.35;;;7.28;;
70444;SDS011;57902;49.638;11.070;2024-01-30T08:23:02;16.98;;;6.68;;
70444;SDS011;57902;49.638;11.070;2024-01-30T08:25:29;17.92;;;5.65;;
70444;SDS011;57902;49.638;11.070;2024-01-30T08:27:56;14.00;;;5.93;;
70444;SDS011;57902;49.638;11.070;2024-01-30T08:30:24;16.40;;;6.35;;
70444;SDS011;57902;49.638;11.070;2024-01-30T08:32:50;14.20;;;6.55;;
70444;SDS011;57902;49.638;11.070;2024-01-30T08:35:18;14.55;;;6.57;;
70444;SDS011;57902;49.638;11.070;2024-01-30T08:37:45;16.52;;;6.00;;
70444;SDS011;57902;49.638;11.070;2024-01-30T08:40:11;16.75;;;6.00;;
70444;SDS011;57902;49.638;11.070;2024-01-30T08:42:38;16.38;;;6.72;;
70444;SDS011;57902;49.638;11.070;2024-01-30T08:45:05;14.07;;;6.60;;
70444;SDS011;57902;49.638;11.070;2024-01-30T08:47:31;14.95;;;6.35;;
70444;SDS011;57902;49.638;11.070;2024-01-30T08:49:59;13.35;;;6.15;;
70444;SDS011;57902;49.638;11.070;2024-01-30T08:52:26;14.00;;;6.38;;
70444;SDS011;57902;49.638;11.070;2024-01-30T08:54:53;20.63;;;8.00;;
70444;SDS011;57902;49.638;11.070;2024-01-30T08:57:20;15.40;;;6.80;;
70444;SDS011;57902;49.638;11.070;2024-01-30T08:59:47;17.63;;;7.72;;
70444;SDS011;57902;49.638;11.070;2024-01-30T09:02:14;17.88;;;7.75;;
70444;SDS011;57902;49.638;11.070;2024-01-30T09:04:42;16.30;;;6.63;;
70444;SDS011;57902;49.638;11.070;2024-01-30T09:07:09;16.08;;;6.60;;
70444;SDS011;57902;49.638;11.070;2024-01-30T09:09:40;15.65;;;6.70;;
70444;SDS011;57902;49.638;11.070;2024-01-30T09:12:07;15.10;;;6.90;;
70444;SDS011;57902;49.638;11.070;2024-01-30T09:14:36;14.38;;;6.43;;
70444;SDS011;57902;49.638;11.070;2024-01-30T09:17:03;15.55;;;6.70;;
70444;SDS011;57902;49.638;11.070;2024-01-30T09:19:30;15.98;;;6.88;;
70444;SDS011;57902;49.638;11.070;2024-01-30T09:21:57;16.15;;;6.97;;
70444;SDS011;57902;49.638;11.070;2024-01-30T09:24:24;17.92;;;7.00;;
70444;SDS011;57902;49.638;11.070;2024-01-30T09:26:52;20.02;;;7.85;;
70444;SDS011;57902;49.638;11.070;2024-01-30T09:29:18;17.08;;;8.07;;
70444;SDS011;57902;49.638;11.070;2024-01-30T09:31:45;18.10;;;7.50;;
70444;SDS011;57902;49.638;11.070;2024-01-30T09:34:12;19.52;;;7.05;;
70444;SDS011;57902;49.638;11.070;2024-01-30T09:36:39;15.55;;;6.78;;
70444;SDS011;57902;49.638;11.070;2024-01-30T09:39:06;17.85;;;6.85;;
70444;SDS011;57902;49.638;11.070;2024-01-30T09:41:33;19.00;;;7.63;;
70444;SDS011;57902;49.638;11.070;2024-01-30T09:44:11;17.42;;;6.90;;
70444;SDS011;57902;49.638;11.070;2024-01-30T09:46:38;16.80;;;8.27;;
70444;SDS011;57902;49.638;11.070;2024-01-30T09:49:06;16.75;;;7.22;;
70444;SDS011;57902;49.638;11.070;2024-01-30T09:54:02;20.48;;;7.57;;
70444;SDS011;57902;49.638;11.070;2024-01-30T09:56:29;18.83;;;7.47;;
70444;SDS011;57902;49.638;11.070;2024-01-30T09:58:55;21.70;;;8.68;;
70444;SDS011;57902;49.638;11.070;2024-01-30T10:01:22;23.42;;;8.07;;
70444;SDS011;57902;49.638;11.070;2024-01-30T10:03:50;16.27;;;7.30;;
70444;SDS011;57902;49.638;11.070;2024-01-30T10:06:19;18.77;;;7.65;;
70444;SDS011;57902;49.638;11.070;2024-01-30T10:08:49;16.50;;;7.32;;
70444;SDS011;57902;49.638;11.070;2024-01-30T10:11:15;26.15;;;7.53;;
70444;SDS011;57902;49.638;11.070;2024-01-30T10:13:42;15.63;;;7.30;;
70444;SDS011;57902;49.638;11.070;2024-01-30T10:16:09;14.93;;;7.10;;
70444;SDS011;57902;49.638;11.070;2024-01-30T10:18:35;21.90;;;8.73;;
70444;SDS011;57902;49.638;11.070;2024-01-30T10:21:02;15.70;;;7.38;;
70444;SDS011;57902;49.638;11.070;2024-01-30T10:23:29;25.33;;;10.40;;
70444;SDS011;57902;49.638;11.070;2024-01-30T10:26:02;16.10;;;7.40;;
70444;SDS011;57902;49.638;11.070;2024-01-30T10:28:30;16.83;;;7.30;;
70444;SDS011;57902;49.638;11.070;2024-01-30T10:30:57;15.88;;;6.95;;
70444;SDS011;57902;49.638;11.070;2024-01-30T10:33:31;21.30;;;8.90;;
70444;SDS011;57902;49.638;11.070;2024-01-30T10:36:01;17.42;;;7.47;;
70444;SDS011;57902;49.638;11.070;2024-01-30T10:38:30;16.88;;;7.15;;
70444;SDS011;57902;49.638;11.070;2024-01-30T10:40:59;18.98;;;7.80;;
70444;SDS011;57902;49.638;11.070;2024-01-30T10:43:30;18.50;;;7.25;;
70444;SDS011;57902;49.638;11.070;2024-01-30T10:46:02;22.40;;;7.65;;
70444;SDS011;57902;49.638;11.070;2024-01-30T10:48:36;20.67;;;7.82;;
70444;SDS011;57902;49.638;11.070;2024-01-30T10:51:09;16.65;;;6.93;;
70444;SDS011;57902;49.638;11.070;2024-01-30T10:53:37;19.17;;;7.90;;
70444;SDS011;57902;49.638;11.070;2024-01-30T10:56:04;20.27;;;7.03;;
70444;SDS011;57902;49.638;11.070;2024-01-30T10:58:32;17.13;;;6.95;;
70444;SDS011;57902;49.638;11.070;2024-01-30T11:00:59;20.95;;;7.55;;
70444;SDS011;57902;49.638;11.070;2024-01-30T11:03:26;22.25;;;7.75;;
70444;SDS011;57902;49.638;11.070;2024-01-30T11:05:53;20.48;;;8.10;;
70444;SDS011;57902;49.638;11.070;2024-01-30T11:08:23;17.30;;;7.20;;
70444;SDS011;57902;49.638;11.070;2024-01-30T11:10:55;24.70;;;8.38;;
70444;SDS011;57902;49.638;11.070;2024-01-30T11:13:29;16.65;;;7.47;;
70444;SDS011;57902;49.638;11.070;2024-01-30T11:16:05;19.75;;;7.20;;
70444;SDS011;57902;49.638;11.070;2024-01-30T11:18:32;16.63;;;6.90;;
70444;SDS011;57902;49.638;11.070;2024-01-30T11:21:01;27.20;;;8.32;;
70444;SDS011;57902;49.638;11.070;2024-01-30T11:23:32;15.18;;;6.97;;
70444;SDS011;57902;49.638;11.070;2024-01-30T11:26:00;20.52;;;8.07;;
70444;SDS011;57902;49.638;11.070;2024-01-30T11:28:31;17.05;;;8.25;;
70444;SDS011;57902;49.638;11.070;2024-01-30T11:31:05;18.02;;;7.47;;
70444;SDS011;57902;49.638;11.070;2024-01-30T11:33:33;16.48;;;7.30;;
70444;SDS011;57902;49.638;11.070;2024-01-30T11:36:00;22.30;;;7.90;;
70444;SDS011;57902;49.638;11.070;2024-01-30T11:38:28;17.98;;;7.43;;
70444;SDS011;57902;49.638;11.070;2024-01-30T11:40:55;22.88;;;7.43;;
70444;SDS011;57902;49.638;11.070;2024-01-30T11:43:23;28.38;;;8.50;;
70444;SDS011;57902;49.638;11.070;2024-01-30T11:45:50;18.35;;;7.55;;
70444;SDS011;57902;49.638;11.070;2024-01-30T11:48:18;23.30;;;7.20;;
70444;SDS011;57902;49.638;11.070;2024-01-30T11:50:44;18.48;;;7.57;;
70444;SDS011;57902;49.638;11.070;2024-01-30T11:53:11;17.88;;;7.28;;
70444;SDS011;57902;49.638;11.070;2024-01-30T11:55:38;17.00;;;7.60;;
70444;SDS011;57902;49.638;11.070;2024-01-30T11:58:05;16.70;;;7.50;;
70444;SDS011;57902;49.638;11.070;2024-01-30T12:00:31;15.05;;;7.20;;
70444;SDS011;57902;49.638;11.070;2024-01-30T12:03:00;18.70;;;7.50;;
70444;SDS011;57902;49.638;11.070;2024-01-30T12:05:28;19.77;;;7.85;;
70444;SDS011;57902;49.638;11.070;2024-01-30T12:07:55;16.77;;;7.35;;
70444;SDS011;57902;49.638;11.070;2024-01-30T12:10:25;21.58;;;9.27;;
70444;SDS011;57902;49.638;11.070;2024-01-30T12:12:52;27.63;;;9.60;;
70444;SDS011;57902;49.638;11.070;2024-01-30T12:15:19;34.08;;;10.80;;
70444;SDS011;57902;49.638;11.070;2024-01-30T12:17:48;33.58;;;10.70;;
70444;SDS011;57902;49.638;11.070;2024-01-30T12:20:17;39.40;;;12.82;;
70444;SDS011;57902;49.638;11.070;2024-01-30T12:22:46;20.95;;;8.82;;
70444;SDS011;57902;49.638;11.070;2024-01-30T12:27:42;24.88;;;9.60;;
70444;SDS011;57902;49.638;11.070;2024-01-30T12:30:11;27.65;;;10.70;;
70444;SDS011;57902;49.638;11.070;2024-01-30T12:32:40;21.98;;;9.23;;
70444;SDS011;57902;49.638;11.070;2024-01-30T12:35:14;23.08;;;9.05;;
70444;SDS011;57902;49.638;11.070;2024-01-30T12:37:42;29.95;;;8.50;;
70444;SDS011;57902;49.638;11.070;2024-01-30T12:40:11;27.52;;;8.63;;
70444;SDS011;57902;49.638;11.070;2024-01-30T12:42:41;33.78;;;9.07;;
70444;SDS011;57902;49.638;11.070;2024-01-30T12:45:09;25.05;;;7.88;;
70444;SDS011;57902;49.638;11.070;2024-01-30T12:47:36;21.80;;;7.88;;
70444;SDS011;57902;49.638;11.070;2024-01-30T12:50:03;23.60;;;8.57;;
70444;SDS011;57902;49.638;11.070;2024-01-30T12:52:30;25.35;;;8.50;;
70444;SDS011;57902;49.638;11.070;2024-01-30T12:54:57;22.73;;;8.70;;
70444;SDS011;57902;49.638;11.070;2024-01-30T12:57:24;17.45;;;7.78;;
70444;SDS011;57902;49.638;11.070;2024-01-30T12:59:51;23.23;;;7.85;;
70444;SDS011;57902;49.638;11.070;2024-01-30T13:02:17;17.13;;;7.50;;
70444;SDS011;57902;49.638;11.070;2024-01-30T13:04:44;20.35;;;7.60;;
70444;SDS011;57902;49.638;11.070;2024-01-30T13:07:15;23.45;;;7.82;;
70444;SDS011;57902;49.638;11.070;2024-01-30T13:09:41;16.38;;;7.50;;
70444;SDS011;57902;49.638;11.070;2024-01-30T13:12:08;17.17;;;7.10;;
70444;SDS011;57902;49.638;11.070;2024-01-30T13:14:34;17.10;;;7.63;;
70444;SDS011;57902;49.638;11.070;2024-01-30T13:17:01;19.55;;;7.60;;
70444;SDS011;57902;49.638;11.070;2024-01-30T13:19:27;19.77;;;7.57;;
70444;SDS011;57902;49.638;11.070;2024-01-30T13:21:54;26.30;;;8.90;;
70444;SDS011;57902;49.638;11.070;2024-01-30T13:24:21;24.38;;;7.90;;
70444;SDS011;57902;49.638;11.070;2024-01-30T13:26:47;17.67;;;7.00;;
70444;SDS011;57902;49.638;11.070;2024-01-30T13:29:15;19.55;;;7.95;;
70444;SDS011;57902;49.638;11.070;2024-01-30T13:31:41;21.73;;;7.38;;
70444;SDS011;57902;49.638;11.070;2024-01-30T13:36:37;19.75;;;7.38;;
70444;SDS011;57902;49.638;11.070;2024-01-30T13:39:03;16.75;;;7.18;;
70444;SDS011;57902;49.638;11.070;2024-01-30T13:41:33;44.25;;;12.23;;
70444;SDS011;57902;49.638;11.070;2024-01-30T13:44:00;18.85;;;7.85;;
70444;SDS011;57902;49.638;11.070;2024-01-30T13:46:29;18.25;;;7.55;;
70444;SDS011;57902;49.638;11.070;2024-01-30T13:48:56;22.73;;;7.32;;
70444;SDS011;57902;49.638;11.070;2024-01-30T13:51:23;31.77;;;8.40;;
70444;SDS011;57902;49.638;11.070;2024-01-30T13:53:50;25.17;;;7.55;;
70444;SDS011;57902;49.638;11.070;2024-01-30T13:56:16;13.88;;;6.80;;
70444;SDS011;57902;49.638;11.070;2024-01-30T13:58:43;19.02;;;7.13;;
70444;SDS011;57902;49.638;11.070;2024-01-30T14:01:10;16.65;;;6.93;;
70444;SDS011;57902;49.638;11.070;2024-01-30T14:03:37;24.67;;;7.50;;
70444;SDS011;57902;49.638;11.070;2024-01-30T14:06:03;15.85;;;6.68;;
70444;SDS011;57902;49.638;11.070;2024-01-30T14:08:31;22.05;;;7.68;;
70444;SDS011;57902;49.638;11.070;2024-01-30T14:10:58;19.75;;;6.93;;
70444;SDS011;57902;49.638;11.070;2024-01-30T14:13:24;17.27;;;6.95;;
70444;SDS011;57902;49.638;11.070;2024-01-30T14:15:51;19.35;;;8.15;;
70444;SDS011;57902;49.638;11.070;2024-01-30T14:18:19;20.40;;;8.13;;
70444;SDS011;57902;49.638;11.070;2024-01-30T14:20:46;20.42;;;7.38;;
70444;SDS011;57902;49.638;11.070;2024-01-30T14:23:12;24.15;;;7.55;;
70444;SDS011;57902;49.638;11.070;2024-01-30T14:25:39;18.23;;;6.90;;
70444;SDS011;57902;49.638;11.070;2024-01-30T14:28:05;17.13;;;6.50;;
70444;SDS011;57902;49.638;11.070;2024-01-30T14:30:33;16.80;;;7.65;;